Ansted, West Virginia
Current Conditions -  °F | °C
As of 5:51 PM on Saturday 22 Nov 2014 (Local Time) from KBKW Reporting Station
Clear Clear  
Wind Chill: 43°   Ceiling: Unl
Heat Index: 47°   Visibility: 10mi
Dew Point: 18°   Wind: 9mph
Humidity: 32%   Direction: 150°SSE
Pressure: 30.21"   Gusts: NA
Location:  38.14°N, 81.1°W
Report Text: KBKW 222251Z AUTO 15008KT 10SM CLR 08/M08 A3021 RMK AO2 SLP249 T00831078
Loading
Personal Weather Stations






























Interactive Weather Map New forecast layout! Learn more

10-Day Weather Forecast

Advertisements
Track Severe Weather on mobile